createdAt,value
2022-12-01T00:02:17.688Z,26.65
2022-12-01T00:04:44.129Z,29.58
2022-12-01T00:07:10.865Z,27.70
2022-12-01T00:09:37.221Z,28.33
2022-12-01T00:12:03.734Z,30.58
2022-12-01T00:14:30.063Z,31.38
2022-12-01T00:16:56.422Z,30.75
2022-12-01T00:19:26.376Z,32.30
2022-12-01T00:21:52.738Z,33.35
2022-12-01T00:24:19.117Z,30.40
2022-12-01T00:26:45.496Z,29.98
2022-12-01T00:29:11.863Z,31.67
2022-12-01T00:31:38.298Z,31.85
2022-12-01T00:34:08.214Z,30.25
2022-12-01T00:36:37.538Z,32.97
2022-12-01T00:39:03.881Z,31.90
2022-12-01T00:41:30.220Z,34.80
2022-12-01T00:43:56.572Z,33.53
2022-12-01T00:46:22.984Z,32.97
2022-12-01T00:48:49.368Z,32.35
2022-12-01T00:51:15.725Z,33.65
2022-12-01T00:53:42.032Z,31.42
2022-12-01T00:56:08.346Z,30.63
2022-12-01T00:58:34.687Z,34.65
2022-12-01T01:01:02.231Z,35.88
2022-12-01T01:03:29.985Z,34.83
2022-12-01T01:05:56.439Z,35.17
2022-12-01T01:08:22.807Z,35.97
2022-12-01T01:10:49.398Z,38.05
2022-12-01T01:13:16.525Z,36.00
2022-12-01T01:15:42.878Z,38.20
2022-12-01T01:18:11.305Z,38.33
2022-12-01T01:20:37.655Z,37.67
2022-12-01T01:23:03.961Z,36.55
2022-12-01T01:25:32.413Z,38.45
2022-12-01T01:27:58.717Z,36.20
2022-12-01T01:30:25.147Z,39.85
2022-12-01T01:32:51.489Z,40.20
2022-12-01T01:35:17.881Z,37.85
2022-12-01T01:37:44.206Z,40.20
2022-12-01T01:40:10.952Z,39.38
2022-12-01T01:42:37.298Z,42.33
2022-12-01T01:45:03.961Z,41.20
2022-12-01T01:47:34.636Z,40.70
2022-12-01T01:50:06.776Z,40.92
2022-12-01T01:52:42.918Z,44.45
2022-12-01T01:55:09.606Z,45.10
2022-12-01T01:57:36.258Z,44.95
2022-12-01T02:00:07.697Z,43.42
2022-12-01T02:02:37.398Z,46.50
2022-12-01T02:05:03.898Z,41.10
2022-12-01T02:07:30.592Z,43.47
2022-12-01T02:09:57.602Z,44.08
2022-12-01T02:12:40.262Z,44.05
2022-12-01T02:15:42.239Z,46.13
2022-12-01T02:18:32.492Z,41.72
2022-12-01T02:21:43.192Z,41.10
2022-12-01T02:24:27.452Z,45.25
2022-12-01T02:27:06.906Z,43.00
2022-12-01T02:29:48.550Z,43.80
2022-12-01T02:32:33.537Z,41.05
2022-12-01T02:35:28.605Z,43.22
2022-12-01T02:38:10.007Z,41.25
2022-12-01T02:41:05.303Z,40.30
2022-12-01T02:43:41.929Z,41.17
2022-12-01T02:46:36.706Z,39.65
2022-12-01T02:49:11.281Z,40.05
2022-12-01T02:51:41.103Z,39.65
2022-12-01T02:54:08.350Z,39.92
2022-12-01T02:56:34.698Z,42.03
2022-12-01T02:59:01.003Z,38.72
2022-12-01T03:01:55.306Z,41.38
2022-12-01T03:04:55.932Z,39.65
2022-12-01T03:07:37.398Z,39.80
2022-12-01T03:10:30.150Z,38.42
2022-12-01T03:13:25.640Z,37.70
2022-12-01T03:16:04.607Z,38.08
2022-12-01T03:18:50.666Z,39.30
2022-12-01T03:21:34.731Z,38.65
2022-12-01T03:24:05.517Z,39.63
2022-12-01T03:26:36.156Z,41.45
2022-12-01T03:29:08.096Z,42.70
2022-12-01T03:31:41.496Z,43.75
2022-12-01T03:34:35.497Z,44.47
2022-12-01T03:37:07.008Z,44.10
2022-12-01T03:39:37.935Z,42.88
2022-12-01T03:42:27.891Z,42.78
2022-12-01T03:44:58.947Z,41.92
2022-12-01T03:47:29.998Z,43.35
2022-12-01T03:49:57.066Z,41.75
2022-12-01T03:52:32.376Z,42.75
2022-12-01T03:55:12.901Z,42.88
2022-12-01T03:57:55.536Z,45.90
2022-12-01T04:00:23.434Z,47.80
2022-12-01T04:02:56.294Z,48.30
2022-12-01T04:05:25.470Z,49.08
2022-12-01T04:07:52.875Z,51.30
2022-12-01T04:10:19.280Z,57.90
2022-12-01T04:12:45.740Z,55.78
2022-12-01T04:15:13.662Z,60.00
2022-12-01T04:17:41.505Z,65.22
2022-12-01T04:20:08.242Z,63.65
2022-12-01T04:22:34.795Z,62.78
2022-12-01T04:25:01.116Z,63.13
2022-12-01T04:27:27.499Z,63.60
2022-12-01T04:29:53.818Z,63.45
2022-12-01T04:32:20.198Z,64.88
2022-12-01T04:34:46.529Z,66.28
2022-12-01T04:37:12.866Z,69.88
2022-12-01T04:39:39.391Z,70.50
2022-12-01T04:42:05.750Z,65.68
2022-12-01T04:44:34.982Z,69.75
2022-12-01T04:47:02.679Z,71.47
2022-12-01T04:49:29.085Z,68.43
2022-12-01T04:51:55.456Z,69.65
2022-12-01T04:54:22.126Z,69.78
2022-12-01T04:56:48.478Z,66.97
2022-12-01T04:59:14.856Z,65.95
2022-12-01T05:01:41.303Z,68.35
2022-12-01T05:04:07.684Z,67.07
2022-12-01T05:06:34.012Z,65.28
2022-12-01T05:09:01.673Z,64.15
2022-12-01T05:11:29.839Z,67.10
2022-12-01T05:13:56.198Z,70.70
2022-12-01T05:16:32.578Z,66.47
2022-12-01T05:19:01.796Z,63.33
2022-12-01T05:21:28.114Z,67.32
2022-12-01T05:23:54.424Z,68.55
2022-12-01T05:26:20.767Z,64.53
2022-12-01T05:28:47.086Z,65.10
2022-12-01T05:31:13.428Z,65.70
2022-12-01T05:33:39.781Z,67.00
2022-12-01T05:36:06.369Z,66.47
2022-12-01T05:38:32.666Z,64.30
2022-12-01T05:40:58.992Z,63.42
2022-12-01T05:43:29.049Z,62.95
2022-12-01T05:45:57.011Z,65.65
2022-12-01T05:48:23.998Z,66.50
2022-12-01T05:50:50.342Z,70.90
2022-12-01T05:53:17.403Z,70.70
2022-12-01T05:55:44.089Z,70.88
2022-12-01T05:58:10.955Z,68.88
2022-12-01T06:00:45.429Z,70.35
2022-12-01T06:03:12.612Z,67.72
2022-12-01T06:05:39.084Z,65.07
2022-12-01T06:08:05.558Z,64.10
2022-12-01T06:10:31.945Z,64.78
2022-12-01T06:12:58.272Z,62.78
2022-12-01T06:15:24.622Z,60.55
2022-12-01T06:17:50.939Z,61.33
2022-12-01T06:20:17.506Z,61.22
2022-12-01T06:22:43.853Z,59.05
2022-12-01T06:25:10.853Z,58.70
2022-12-01T06:27:37.426Z,59.38
2022-12-01T06:30:04.661Z,58.28
2022-12-01T06:32:30.964Z,56.60
2022-12-01T06:34:57.272Z,56.00
2022-12-01T06:37:23.625Z,59.05
2022-12-01T06:39:50.134Z,57.90
2022-12-01T06:42:16.657Z,56.13
2022-12-01T06:44:42.984Z,57.10
2022-12-01T06:47:09.307Z,58.90
2022-12-01T06:49:35.782Z,57.88
2022-12-01T06:52:02.126Z,56.38
2022-12-01T06:54:28.534Z,54.45
2022-12-01T06:56:54.893Z,54.47
2022-12-01T06:59:21.522Z,55.53
2022-12-01T07:01:48.408Z,57.50
2022-12-01T07:04:14.794Z,55.58
2022-12-01T07:06:41.112Z,54.75
2022-12-01T07:09:07.425Z,56.40
2022-12-01T07:11:33.763Z,53.40
2022-12-01T07:14:00.074Z,53.50
2022-12-01T07:16:26.476Z,55.92
2022-12-01T07:18:52.808Z,57.30
2022-12-01T07:21:19.145Z,57.83
2022-12-01T07:23:45.629Z,55.70
2022-12-01T07:26:14.300Z,56.70
2022-12-01T07:28:41.207Z,53.85
2022-12-01T07:31:13.815Z,55.17
2022-12-01T07:33:40.505Z,55.78
2022-12-01T07:36:07.770Z,55.88
2022-12-01T07:38:35.199Z,52.00
2022-12-01T07:41:06.815Z,53.78
2022-12-01T07:43:34.190Z,52.05
2022-12-01T07:46:05.590Z,56.20
2022-12-01T07:48:32.038Z,54.63
2022-12-01T07:50:58.356Z,56.55
2022-12-01T07:53:24.746Z,57.03
2022-12-01T07:55:51.052Z,57.33
2022-12-01T07:58:17.556Z,55.40
2022-12-01T08:00:43.919Z,58.00
2022-12-01T08:03:10.345Z,57.80
2022-12-01T08:05:36.781Z,58.22
2022-12-01T08:08:03.327Z,58.80
2022-12-01T08:10:29.691Z,59.35
2022-12-01T08:12:56.048Z,58.65
2022-12-01T08:15:22.631Z,59.75
2022-12-01T08:17:49.034Z,59.70
2022-12-01T08:20:19.551Z,58.80
2022-12-01T08:22:48.768Z,58.78
2022-12-01T08:25:15.167Z,58.30
2022-12-01T08:27:41.498Z,60.33
2022-12-01T08:30:08.576Z,58.45
2022-12-01T08:32:34.975Z,57.40
2022-12-01T08:35:01.278Z,60.38
2022-12-01T08:37:27.590Z,58.25
2022-12-01T08:39:53.902Z,57.00
2022-12-01T08:42:20.224Z,58.17
2022-12-01T08:44:46.603Z,62.17
2022-12-01T08:47:17.306Z,59.30
2022-12-01T08:49:45.117Z,57.67
2022-12-01T08:52:11.425Z,58.08
2022-12-01T08:54:37.805Z,58.40
2022-12-01T08:57:04.300Z,57.70
2022-12-01T08:59:30.597Z,58.20
2022-12-01T09:01:56.974Z,58.17
2022-12-01T09:04:25.155Z,57.83
2022-12-01T09:06:53.533Z,56.05
2022-12-01T09:09:26.248Z,56.72
2022-12-01T09:11:52.691Z,55.97
2022-12-01T09:14:20.619Z,55.00
2022-12-01T09:16:48.340Z,51.13
2022-12-01T09:19:19.197Z,52.33
2022-12-01T09:21:49.962Z,51.97
2022-12-01T09:24:16.378Z,52.97
2022-12-01T09:26:42.766Z,56.00
2022-12-01T09:29:12.281Z,51.85
2022-12-01T09:31:38.824Z,50.50
2022-12-01T09:34:08.588Z,46.17
2022-12-01T09:36:36.342Z,43.60
2022-12-01T09:39:03.044Z,43.60
2022-12-01T09:41:41.847Z,43.40
2022-12-01T09:44:11.138Z,42.33
2022-12-01T09:46:52.803Z,41.25
2022-12-01T09:49:24.161Z,42.25
2022-12-01T09:51:52.586Z,42.13
2022-12-01T09:54:19.010Z,42.00
2022-12-01T09:56:51.045Z,40.30
2022-12-01T09:59:21.701Z,42.17
2022-12-01T10:01:52.536Z,42.05
2022-12-01T10:04:41.476Z,40.00
2022-12-01T10:07:25.493Z,39.95
2022-12-01T10:09:54.935Z,39.08
2022-12-01T10:12:23.745Z,39.22
2022-12-01T10:14:50.743Z,40.58
2022-12-01T10:17:28.032Z,40.72
2022-12-01T10:20:02.907Z,39.85
2022-12-01T10:25:11.292Z,40.60
2022-12-01T10:27:47.772Z,42.40
2022-12-01T10:30:16.585Z,40.25
2022-12-01T10:32:59.059Z,41.97
2022-12-01T10:35:27.884Z,41.78
2022-12-01T10:37:58.853Z,40.42
2022-12-01T10:40:27.033Z,40.38
2022-12-01T10:42:53.972Z,43.22
2022-12-01T10:45:24.428Z,39.58
2022-12-01T10:48:16.811Z,40.65
2022-12-01T10:50:46.185Z,41.55
2022-12-01T10:53:34.765Z,37.53
2022-12-01T10:56:09.922Z,39.95
2022-12-01T10:58:47.208Z,42.70
2022-12-01T11:01:33.466Z,39.88
2022-12-01T11:04:07.651Z,39.03
2022-12-01T11:06:34.633Z,38.10
2022-12-01T11:09:07.012Z,41.63
2022-12-01T11:11:39.349Z,40.08
2022-12-01T11:14:16.927Z,39.33
2022-12-01T11:16:45.777Z,40.20
2022-12-01T11:19:31.067Z,39.13
2022-12-01T11:24:27.321Z,38.42
2022-12-01T11:26:54.117Z,40.22
2022-12-01T11:29:34.434Z,41.05
2022-12-01T11:32:02.346Z,40.38
2022-12-01T11:34:33.704Z,40.33
2022-12-01T11:37:07.009Z,40.30
2022-12-01T11:39:37.387Z,41.15
2022-12-01T11:42:28.341Z,40.63
2022-12-01T11:45:03.154Z,40.78
2022-12-01T11:50:01.329Z,39.40
2022-12-01T11:52:34.631Z,39.47
2022-12-01T11:55:13.018Z,40.13
2022-12-01T11:57:43.517Z,39.58
2022-12-01T12:00:21.456Z,39.20
2022-12-01T12:03:16.118Z,37.78
2022-12-01T12:05:52.792Z,39.13
2022-12-01T12:08:34.495Z,36.47
2022-12-01T12:11:16.693Z,39.30
2022-12-01T12:13:42.947Z,38.65
2022-12-01T12:16:15.208Z,37.85
2022-12-01T12:19:06.582Z,35.53
2022-12-01T12:21:51.255Z,36.10
2022-12-01T12:24:32.103Z,38.33
2022-12-01T12:27:10.675Z,38.78
2022-12-01T12:29:54.277Z,37.90
2022-12-01T12:33:00.717Z,36.30
2022-12-01T12:35:44.463Z,43.40
2022-12-01T12:38:46.403Z,38.70
2022-12-01T12:41:31.375Z,36.85
2022-12-01T12:44:35.377Z,37.05
2022-12-01T12:47:24.962Z,39.75
2022-12-01T12:50:00.374Z,41.05
2022-12-01T12:52:33.469Z,38.65
2022-12-01T12:55:12.074Z,35.08
2022-12-01T12:57:45.221Z,34.65
2022-12-01T13:00:26.820Z,39.70
2022-12-01T13:03:14.746Z,36.83
2022-12-01T13:05:45.187Z,33.95
2022-12-01T13:08:17.402Z,34.67
2022-12-01T13:11:22.860Z,37.25
2022-12-01T13:14:20.338Z,25.17
2022-12-01T13:16:50.264Z,35.13
2022-12-01T13:19:18.621Z,34.50
2022-12-01T13:21:48.186Z,34.60
2022-12-01T13:24:23.027Z,32.88
2022-12-01T13:26:56.956Z,34.80
2022-12-01T13:29:24.838Z,35.15
2022-12-01T13:31:53.068Z,36.95
2022-12-01T13:34:25.139Z,37.38
2022-12-01T13:36:54.060Z,35.88
2022-12-01T13:39:26.299Z,42.17
2022-12-01T13:42:02.261Z,43.83
2022-12-01T13:44:33.907Z,41.08
2022-12-01T13:47:12.218Z,43.80
2022-12-01T13:49:40.582Z,42.05
2022-12-01T13:52:22.140Z,41.40
2022-12-01T13:55:06.855Z,48.53
2022-12-01T13:57:35.808Z,44.22
2022-12-01T14:00:05.702Z,41.80
2022-12-01T14:02:35.393Z,43.80
2022-12-01T14:05:22.022Z,42.42
2022-12-01T14:07:53.541Z,43.83
2022-12-01T14:10:25.786Z,43.58
2022-12-01T14:12:56.367Z,40.78
2022-12-01T14:15:30.404Z,38.28
2022-12-01T14:18:22.002Z,27.95
2022-12-01T14:20:49.111Z,37.33
2022-12-01T14:23:18.375Z,35.38
2022-12-01T14:25:59.215Z,35.08
2022-12-01T14:28:54.918Z,35.00
2022-12-01T14:31:25.486Z,42.55
2022-12-01T14:33:58.541Z,43.65
2022-12-01T14:36:34.030Z,41.78
2022-12-01T14:39:06.107Z,43.50
2022-12-01T14:41:48.069Z,41.85
2022-12-01T14:44:21.037Z,42.85
2022-12-01T14:46:54.187Z,44.25
2022-12-01T14:49:25.542Z,45.60
2022-12-01T14:52:00.483Z,43.03
2022-12-01T14:54:32.445Z,42.67
2022-12-01T14:57:07.371Z,42.65
2022-12-01T14:59:35.539Z,44.67
2022-12-01T15:02:07.723Z,42.80
2022-12-01T15:04:55.066Z,44.15
2022-12-01T15:07:22.805Z,44.55
2022-12-01T15:09:59.522Z,45.95
2022-12-01T15:12:27.589Z,43.30
2022-12-01T15:14:54.079Z,42.50
2022-12-01T15:17:32.770Z,43.35
2022-12-01T15:19:59.319Z,45.03
2022-12-01T15:22:30.663Z,45.53
2022-12-01T15:25:29.613Z,43.95
2022-12-01T15:28:28.850Z,47.22
2022-12-01T15:30:55.736Z,46.03
2022-12-01T15:33:28.317Z,43.67
2022-12-01T15:35:56.266Z,46.60
2022-12-01T15:38:26.856Z,46.10
2022-12-01T15:43:41.745Z,45.40
2022-12-01T15:46:15.971Z,48.33
2022-12-01T15:48:42.725Z,46.45
2022-12-01T15:51:24.421Z,48.03
2022-12-01T15:53:53.380Z,48.72
2022-12-01T15:56:29.417Z,47.33
2022-12-01T15:59:09.413Z,49.92
2022-12-01T16:01:36.672Z,47.08
2022-12-01T16:04:07.231Z,47.90
2022-12-01T16:06:36.638Z,48.42
2022-12-01T16:09:18.549Z,46.47
2022-12-01T16:12:18.548Z,46.63
2022-12-01T16:14:55.767Z,47.75
2022-12-01T16:17:23.747Z,50.15
2022-12-01T16:20:18.960Z,47.10
2022-12-01T16:22:48.216Z,47.40
2022-12-01T16:25:34.970Z,47.78
2022-12-01T16:28:02.666Z,48.13
2022-12-01T16:30:36.052Z,48.50
2022-12-01T16:33:05.212Z,82.65
2022-12-01T16:35:33.338Z,50.03
2022-12-01T16:38:13.035Z,48.65
2022-12-01T16:40:41.658Z,44.58
2022-12-01T16:43:13.703Z,48.15
2022-12-01T16:45:40.108Z,46.30
2022-12-01T16:48:09.444Z,50.50
2022-12-01T16:50:36.349Z,53.55
2022-12-01T16:53:02.733Z,57.50
2022-12-01T16:55:50.990Z,52.15
2022-12-01T16:58:17.838Z,48.70
2022-12-01T17:00:44.515Z,47.28
2022-12-01T17:03:11.847Z,50.58
2022-12-01T17:05:38.321Z,47.95
2022-12-01T17:08:05.599Z,46.00
2022-12-01T17:10:32.070Z,46.78
2022-12-01T17:12:58.367Z,49.78
2022-12-01T17:15:24.739Z,47.38
2022-12-01T17:17:51.024Z,48.45
2022-12-01T17:20:17.605Z,51.60
2022-12-01T17:22:43.948Z,46.03
2022-12-01T17:25:10.296Z,47.25
2022-12-01T17:27:38.050Z,47.72
2022-12-01T17:30:05.941Z,49.08
2022-12-01T17:32:32.315Z,48.60
2022-12-01T17:34:58.665Z,47.03
2022-12-01T17:37:25.008Z,51.97
2022-12-01T17:39:51.311Z,49.10
2022-12-01T17:42:17.632Z,48.60
2022-12-01T17:44:43.997Z,47.60
2022-12-01T17:47:10.476Z,47.28
2022-12-01T17:49:37.371Z,49.80
2022-12-01T17:52:04.623Z,51.25
2022-12-01T17:54:31.246Z,51.80
2022-12-01T17:56:57.619Z,51.08
2022-12-01T17:59:24.006Z,50.00
2022-12-01T18:01:50.423Z,49.45
2022-12-01T18:04:16.768Z,47.22
2022-12-01T18:06:43.051Z,52.30
2022-12-01T18:18:50.533Z,48.58
2022-12-01T18:21:19.181Z,53.80
2022-12-01T18:23:50.212Z,52.22
2022-12-01T18:26:17.245Z,51.45
2022-12-01T18:28:44.323Z,55.47
2022-12-01T18:31:14.364Z,54.58
2022-12-01T18:33:42.107Z,55.28
2022-12-01T18:36:17.720Z,53.13
2022-12-01T18:38:44.588Z,53.83
2022-12-01T18:41:10.976Z,55.75
2022-12-01T18:43:37.273Z,54.05
2022-12-01T18:46:05.702Z,54.97
2022-12-01T18:48:33.157Z,55.13
2022-12-01T18:51:07.189Z,56.13
2022-12-01T18:53:34.470Z,56.78
2022-12-01T18:56:05.660Z,54.53
2022-12-01T18:58:32.566Z,55.38
2022-12-01T19:00:59.972Z,56.13
2022-12-01T19:03:29.745Z,54.95
2022-12-01T19:05:56.078Z,55.90
2022-12-01T19:08:22.556Z,56.22
2022-12-01T19:11:02.803Z,62.55
2022-12-01T19:13:32.924Z,55.40
2022-12-01T19:16:04.496Z,56.65
2022-12-01T19:18:30.836Z,52.92
2022-12-01T19:21:01.133Z,57.60
2022-12-01T19:23:27.495Z,59.90
2022-12-01T19:25:53.807Z,56.45
2022-12-01T19:28:20.197Z,56.15
2022-12-01T19:30:48.306Z,58.05
2022-12-01T19:33:17.471Z,58.45
2022-12-01T19:35:43.775Z,57.50
2022-12-01T19:38:10.116Z,53.67
2022-12-01T19:40:37.552Z,60.05
2022-12-01T19:43:04.028Z,55.95
2022-12-01T19:45:30.382Z,57.45
2022-12-01T19:47:57.572Z,58.30
2022-12-01T19:50:23.911Z,60.60
2022-12-01T19:52:50.220Z,58.25
2022-12-01T19:55:16.562Z,61.50
2022-12-01T19:57:42.911Z,58.95
2022-12-01T20:00:10.039Z,58.60
2022-12-01T20:02:36.420Z,52.50
2022-12-01T20:05:02.793Z,54.70
2022-12-01T20:07:30.055Z,52.90
2022-12-01T20:09:56.403Z,51.50
2022-12-01T20:12:22.745Z,51.50
2022-12-01T20:14:49.445Z,52.10
2022-12-01T20:17:16.203Z,53.65
2022-12-01T20:19:42.578Z,50.28
2022-12-01T20:22:08.922Z,51.78
2022-12-01T20:24:35.370Z,52.53
2022-12-01T20:27:01.700Z,48.28
2022-12-01T20:29:29.764Z,51.20
2022-12-01T20:31:58.084Z,52.28
2022-12-01T20:34:27.754Z,52.50
2022-12-01T20:36:54.702Z,51.38
2022-12-01T20:39:21.228Z,53.03
2022-12-01T20:41:47.706Z,53.78
2022-12-01T20:44:16.144Z,51.00
2022-12-01T20:46:43.150Z,51.53
2022-12-01T20:49:09.454Z,51.67
2022-12-01T20:51:36.020Z,49.80
2022-12-01T20:54:27.952Z,51.35
2022-12-01T20:56:50.663Z,52.83
2022-12-01T20:59:17.016Z,52.28
2022-12-01T21:01:43.350Z,51.97
2022-12-01T21:04:09.651Z,51.38
2022-12-01T21:06:36.001Z,52.42
2022-12-01T21:09:04.058Z,52.60
2022-12-01T21:11:45.141Z,52.20
2022-12-01T21:14:36.441Z,52.88
2022-12-01T21:17:15.821Z,52.97
2022-12-01T21:19:54.031Z,54.33
2022-12-01T21:22:20.345Z,57.08
2022-12-01T21:24:50.321Z,54.90
2022-12-01T21:27:17.691Z,53.53
2022-12-01T21:29:46.633Z,53.55
2022-12-01T21:32:18.786Z,54.00
2022-12-01T21:34:48.994Z,54.28
2022-12-01T21:37:23.538Z,53.45
2022-12-01T21:39:51.886Z,54.20
2022-12-01T21:42:21.135Z,51.95
2022-12-01T21:44:48.241Z,51.08
2022-12-01T21:47:21.019Z,51.22
2022-12-01T21:49:50.813Z,52.53
2022-12-01T21:52:22.729Z,53.58
2022-12-01T21:54:49.890Z,55.42
2022-12-01T21:57:52.600Z,54.10
2022-12-01T22:00:36.419Z,55.50
2022-12-01T22:03:08.683Z,51.75
2022-12-01T22:05:39.022Z,53.60
2022-12-01T22:08:22.025Z,51.75
2022-12-01T22:10:55.777Z,52.60
2022-12-01T22:13:25.868Z,50.30
2022-12-01T22:15:53.671Z,52.22
2022-12-01T22:18:27.181Z,49.95
2022-12-01T22:20:54.007Z,50.80
2022-12-01T22:23:31.979Z,52.65
2022-12-01T22:25:58.311Z,51.13
2022-12-01T22:28:24.630Z,48.42
2022-12-01T22:30:52.186Z,50.15
2022-12-01T22:33:23.921Z,49.50
2022-12-01T22:35:52.472Z,48.28
2022-12-01T22:38:35.191Z,50.70
2022-12-01T22:41:20.744Z,50.30
2022-12-01T22:43:50.776Z,48.50
2022-12-01T22:46:34.663Z,51.97
2022-12-01T22:49:10.141Z,50.00
2022-12-01T22:51:50.744Z,49.78
2022-12-01T22:54:17.027Z,51.63
2022-12-01T22:56:53.731Z,51.60
2022-12-01T22:59:29.226Z,52.53
2022-12-01T23:02:00.864Z,50.80
2022-12-01T23:04:39.717Z,52.50
2022-12-01T23:07:29.387Z,52.60
2022-12-01T23:10:02.206Z,50.30
2022-12-01T23:12:33.494Z,52.95
2022-12-01T23:15:14.787Z,50.95
2022-12-01T23:17:41.232Z,50.03
2022-12-01T23:20:10.626Z,48.83
2022-12-01T23:22:38.426Z,48.00
2022-12-01T23:25:18.968Z,49.30
2022-12-01T23:27:48.194Z,49.53
2022-12-01T23:30:16.229Z,50.55
2022-12-01T23:32:43.689Z,50.95
2022-12-01T23:35:18.901Z,54.72
2022-12-01T23:37:47.843Z,52.13
2022-12-01T23:40:30.437Z,48.70
2022-12-01T23:43:14.598Z,50.55
2022-12-01T23:45:41.057Z,47.75
2022-12-01T23:48:21.923Z,46.17
2022-12-01T23:50:53.157Z,45.10
2022-12-01T23:53:29.164Z,48.25
2022-12-01T23:55:57.990Z,45.00
2022-12-01T23:58:24.340Z,44.28
